Aérodrome :
LOGIN :

S'inscrire | Disclaimer

   EN    FR    IT 

 










Légende :    VFR   VFR Marginal   IFR   IFR Intensif   IFR Très Intensif
Visi : 
Plafond : 
>= 8 km
>= 3000ft
5 à 8 km
1000 à 3000 ft
1500m à 5 km
500 à 1000 ft
800 à 1500m
200 à 500 ft
< 800m
< 200 ft
Symboles :   Orages  Brouillard  Fortes neiges  Fortes précipitations  Vent > 20 kt
SIGMETs :   Divers  Orages  Givrage  Turbulence  Onde Orograph.  Cendres Volcan.






- Altitude de l'aérodrome : 56 ft
- Code IATA : TRD


ENVA - Trondheim , Værnes

DERNIER METAR :
  • 162350Z 17015KT CAVOK 05/M04 Q0967 RMK WIND 670FT 18021KT

METARs EXPIRÉS :
  • 162320Z 17011KT CAVOK 05/M04 Q0967 RMK WIND 670FT 18020KT
  • 162250Z 14007KT 120V190 CAVOK 05/M04 Q0967 RMK WIND 670FT 18016KT
  • 162220Z 05006KT 010V110 CAVOK 04/M01 Q0967 RMK WIND 670FT 18014KT
  • 162150Z 06005KT 030V090 CAVOK 02/00 Q0967 RMK WIND 670FT 18015KT

TAF TAF ENVA
Valide du 17 à 00h jusqu'au 18 à 00h UTC


1700/1724 13007KT 9999 SCT030 BKN050
TEMPO 1700/1718 17018G30KT
BECMG 1715/1718 25025G35KT
TEMPO 1715/1724 4000 SHRA BKN012CB
BECMG 1722/1724 25008KT



MET'MAP, la Météo Aéronautique d'un coup d'oeil ! - Copyright ORBIFLY Décembre 2007 - Disclaimer

ORBIFLY MET'MAP TEAM :

Programmation & Développement : Alexandra Zaïnal
Sur une idée originale de : Baudouin d'Aumeries
Assistance à la programmation : Marc-Olivier Méhu
Soutien technique & logistique : Manuel Goepfert

Contact : metmap@orbifly.com




SOURCES & CREDITS :

   NOAA